sensor_id;sensor_type;location;lat;lon;timestamp;P1;durP1;ratioP1;P2;durP2;ratioP2
29214;SDS011;16252;49.816;7.964;2022-11-20T00:01:56;21.08;;;12.95;;
29214;SDS011;16252;49.816;7.964;2022-11-20T00:04:22;19.63;;;12.82;;
29214;SDS011;16252;49.816;7.964;2022-11-20T00:06:47;22.38;;;13.25;;
29214;SDS011;16252;49.816;7.964;2022-11-20T00:09:12;22.42;;;12.90;;
29214;SDS011;16252;49.816;7.964;2022-11-20T00:11:37;19.45;;;11.27;;
29214;SDS011;16252;49.816;7.964;2022-11-20T00:14:03;22.52;;;13.07;;
29214;SDS011;16252;49.816;7.964;2022-11-20T00:16:30;19.95;;;12.38;;
29214;SDS011;16252;49.816;7.964;2022-11-20T00:18:57;20.80;;;12.55;;
29214;SDS011;16252;49.816;7.964;2022-11-20T00:21:23;26.23;;;13.82;;
29214;SDS011;16252;49.816;7.964;2022-11-20T00:23:50;23.02;;;13.02;;
29214;SDS011;16252;49.816;7.964;2022-11-20T00:26:18;22.63;;;13.20;;
29214;SDS011;16252;49.816;7.964;2022-11-20T00:28:48;23.40;;;13.98;;
29214;SDS011;16252;49.816;7.964;2022-11-20T00:31:18;21.98;;;13.43;;
29214;SDS011;16252;49.816;7.964;2022-11-20T00:33:44;20.25;;;12.52;;
29214;SDS011;16252;49.816;7.964;2022-11-20T00:36:11;19.40;;;11.13;;
29214;SDS011;16252;49.816;7.964;2022-11-20T00:38:42;21.25;;;12.35;;
29214;SDS011;16252;49.816;7.964;2022-11-20T00:41:09;23.10;;;13.27;;
29214;SDS011;16252;49.816;7.964;2022-11-20T00:43:36;23.10;;;13.23;;
29214;SDS011;16252;49.816;7.964;2022-11-20T00:46:13;22.48;;;12.65;;
29214;SDS011;16252;49.816;7.964;2022-11-20T00:48:40;23.25;;;12.88;;
29214;SDS011;16252;49.816;7.964;2022-11-20T00:51:06;23.17;;;12.95;;
29214;SDS011;16252;49.816;7.964;2022-11-20T00:53:32;19.98;;;12.75;;
29214;SDS011;16252;49.816;7.964;2022-11-20T00:55:58;23.45;;;12.45;;
29214;SDS011;16252;49.816;7.964;2022-11-20T00:58:27;22.02;;;12.05;;
29214;SDS011;16252;49.816;7.964;2022-11-20T01:01:01;22.45;;;13.18;;
29214;SDS011;16252;49.816;7.964;2022-11-20T01:03:27;19.52;;;12.23;;
29214;SDS011;16252;49.816;7.964;2022-11-20T01:05:52;24.80;;;14.48;;
29214;SDS011;16252;49.816;7.964;2022-11-20T01:08:17;20.70;;;12.07;;
29214;SDS011;16252;49.816;7.964;2022-11-20T01:10:43;19.83;;;12.13;;
29214;SDS011;16252;49.816;7.964;2022-11-20T01:13:08;20.08;;;12.55;;
29214;SDS011;16252;49.816;7.964;2022-11-20T01:15:52;19.10;;;11.25;;
29214;SDS011;16252;49.816;7.964;2022-11-20T01:18:17;20.13;;;11.35;;
29214;SDS011;16252;49.816;7.964;2022-11-20T01:20:42;21.17;;;12.77;;
29214;SDS011;16252;49.816;7.964;2022-11-20T01:23:08;20.70;;;12.55;;
29214;SDS011;16252;49.816;7.964;2022-11-20T01:25:34;21.63;;;12.50;;
29214;SDS011;16252;49.816;7.964;2022-11-20T01:27:59;19.85;;;12.32;;
29214;SDS011;16252;49.816;7.964;2022-11-20T01:30:24;18.60;;;11.02;;
29214;SDS011;16252;49.816;7.964;2022-11-20T01:32:50;22.25;;;13.00;;
29214;SDS011;16252;49.816;7.964;2022-11-20T01:35:15;18.20;;;11.25;;
29214;SDS011;16252;49.816;7.964;2022-11-20T01:37:41;18.52;;;11.40;;
29214;SDS011;16252;49.816;7.964;2022-11-20T01:40:06;22.17;;;13.45;;
29214;SDS011;16252;49.816;7.964;2022-11-20T01:42:32;21.80;;;12.45;;
29214;SDS011;16252;49.816;7.964;2022-11-20T01:48:19;20.05;;;11.20;;
29214;SDS011;16252;49.816;7.964;2022-11-20T01:50:47;19.35;;;11.85;;
29214;SDS011;16252;49.816;7.964;2022-11-20T01:53:14;18.27;;;11.88;;
29214;SDS011;16252;49.816;7.964;2022-11-20T01:55:46;20.13;;;12.45;;
29214;SDS011;16252;49.816;7.964;2022-11-20T01:58:15;20.10;;;11.80;;
29214;SDS011;16252;49.816;7.964;2022-11-20T02:00:43;25.35;;;13.20;;
29214;SDS011;16252;49.816;7.964;2022-11-20T02:03:10;18.63;;;12.18;;
29214;SDS011;16252;49.816;7.964;2022-11-20T02:05:41;19.58;;;12.43;;
29214;SDS011;16252;49.816;7.964;2022-11-20T02:10:39;21.35;;;12.77;;
29214;SDS011;16252;49.816;7.964;2022-11-20T02:13:04;23.77;;;14.18;;
29214;SDS011;16252;49.816;7.964;2022-11-20T02:15:49;22.25;;;12.80;;
29214;SDS011;16252;49.816;7.964;2022-11-20T02:18:15;20.33;;;12.13;;
29214;SDS011;16252;49.816;7.964;2022-11-20T02:20:42;22.75;;;12.70;;
29214;SDS011;16252;49.816;7.964;2022-11-20T02:23:22;20.67;;;12.50;;
29214;SDS011;16252;49.816;7.964;2022-11-20T02:28:27;17.52;;;11.05;;
29214;SDS011;16252;49.816;7.964;2022-11-20T02:30:52;21.38;;;11.63;;
29214;SDS011;16252;49.816;7.964;2022-11-20T02:33:18;20.38;;;11.85;;
29214;SDS011;16252;49.816;7.964;2022-11-20T02:35:44;19.85;;;12.27;;
29214;SDS011;16252;49.816;7.964;2022-11-20T02:38:11;18.80;;;11.88;;
29214;SDS011;16252;49.816;7.964;2022-11-20T02:40:38;20.55;;;12.35;;
29214;SDS011;16252;49.816;7.964;2022-11-20T02:43:03;19.98;;;12.13;;
29214;SDS011;16252;49.816;7.964;2022-11-20T02:45:29;21.58;;;11.95;;
29214;SDS011;16252;49.816;7.964;2022-11-20T02:47:54;21.10;;;12.70;;
29214;SDS011;16252;49.816;7.964;2022-11-20T02:50:19;22.20;;;12.80;;
29214;SDS011;16252;49.816;7.964;2022-11-20T02:52:45;22.38;;;13.32;;
29214;SDS011;16252;49.816;7.964;2022-11-20T02:55:11;22.90;;;13.23;;
29214;SDS011;16252;49.816;7.964;2022-11-20T02:57:36;20.63;;;12.18;;
29214;SDS011;16252;49.816;7.964;2022-11-20T03:00:03;22.08;;;12.82;;
29214;SDS011;16252;49.816;7.964;2022-11-20T03:02:29;20.05;;;12.43;;
29214;SDS011;16252;49.816;7.964;2022-11-20T03:04:55;22.25;;;12.75;;
29214;SDS011;16252;49.816;7.964;2022-11-20T03:07:20;22.85;;;13.07;;
29214;SDS011;16252;49.816;7.964;2022-11-20T03:09:46;19.77;;;12.30;;
29214;SDS011;16252;49.816;7.964;2022-11-20T03:12:11;21.77;;;12.90;;
29214;SDS011;16252;49.816;7.964;2022-11-20T03:14:36;20.02;;;11.13;;
29214;SDS011;16252;49.816;7.964;2022-11-20T03:17:02;20.38;;;12.80;;
29214;SDS011;16252;49.816;7.964;2022-11-20T03:19:27;20.77;;;12.95;;
29214;SDS011;16252;49.816;7.964;2022-11-20T03:21:52;22.80;;;13.05;;
29214;SDS011;16252;49.816;7.964;2022-11-20T03:24:18;21.13;;;12.98;;
29214;SDS011;16252;49.816;7.964;2022-11-20T03:26:43;20.92;;;12.55;;
29214;SDS011;16252;49.816;7.964;2022-11-20T03:29:08;19.77;;;12.35;;
29214;SDS011;16252;49.816;7.964;2022-11-20T03:31:35;20.73;;;12.73;;
29214;SDS011;16252;49.816;7.964;2022-11-20T03:34:03;23.38;;;13.63;;
29214;SDS011;16252;49.816;7.964;2022-11-20T03:36:29;21.30;;;12.52;;
29214;SDS011;16252;49.816;7.964;2022-11-20T03:38:55;19.17;;;11.73;;
29214;SDS011;16252;49.816;7.964;2022-11-20T03:41:25;21.90;;;13.25;;
29214;SDS011;16252;49.816;7.964;2022-11-20T03:44:01;20.83;;;12.00;;
29214;SDS011;16252;49.816;7.964;2022-11-20T03:46:28;24.73;;;12.48;;
29214;SDS011;16252;49.816;7.964;2022-11-20T03:48:53;19.77;;;12.15;;
29214;SDS011;16252;49.816;7.964;2022-11-20T03:51:20;21.35;;;12.38;;
29214;SDS011;16252;49.816;7.964;2022-11-20T03:53:47;22.83;;;12.60;;
29214;SDS011;16252;49.816;7.964;2022-11-20T03:56:14;21.17;;;12.00;;
29214;SDS011;16252;49.816;7.964;2022-11-20T03:58:41;26.23;;;14.20;;
29214;SDS011;16252;49.816;7.964;2022-11-20T04:01:15;22.02;;;13.38;;
29214;SDS011;16252;49.816;7.964;2022-11-20T04:03:43;19.83;;;11.85;;
29214;SDS011;16252;49.816;7.964;2022-11-20T04:06:10;22.25;;;13.18;;
29214;SDS011;16252;49.816;7.964;2022-11-20T04:08:37;21.55;;;12.95;;
29214;SDS011;16252;49.816;7.964;2022-11-20T04:11:09;20.52;;;12.38;;
29214;SDS011;16252;49.816;7.964;2022-11-20T04:13:36;22.50;;;13.40;;
29214;SDS011;16252;49.816;7.964;2022-11-20T04:16:03;20.65;;;12.80;;
29214;SDS011;16252;49.816;7.964;2022-11-20T04:18:29;22.60;;;12.98;;
29214;SDS011;16252;49.816;7.964;2022-11-20T04:20:56;21.02;;;12.85;;
29214;SDS011;16252;49.816;7.964;2022-11-20T04:23:22;21.73;;;13.25;;
29214;SDS011;16252;49.816;7.964;2022-11-20T04:25:47;22.42;;;13.32;;
29214;SDS011;16252;49.816;7.964;2022-11-20T04:28:12;19.65;;;11.75;;
29214;SDS011;16252;49.816;7.964;2022-11-20T04:30:38;21.33;;;12.50;;
29214;SDS011;16252;49.816;7.964;2022-11-20T04:33:03;19.80;;;11.75;;
29214;SDS011;16252;49.816;7.964;2022-11-20T04:35:28;21.58;;;13.07;;
29214;SDS011;16252;49.816;7.964;2022-11-20T04:37:53;20.08;;;12.05;;
29214;SDS011;16252;49.816;7.964;2022-11-20T04:40:19;18.95;;;11.93;;
29214;SDS011;16252;49.816;7.964;2022-11-20T04:42:44;22.02;;;11.77;;
29214;SDS011;16252;49.816;7.964;2022-11-20T04:45:09;24.80;;;12.27;;
29214;SDS011;16252;49.816;7.964;2022-11-20T04:47:34;21.67;;;11.68;;
29214;SDS011;16252;49.816;7.964;2022-11-20T04:50:00;19.58;;;11.65;;
29214;SDS011;16252;49.816;7.964;2022-11-20T04:52:25;24.70;;;12.82;;
29214;SDS011;16252;49.816;7.964;2022-11-20T04:54:50;22.85;;;12.05;;
29214;SDS011;16252;49.816;7.964;2022-11-20T04:57:17;20.08;;;12.13;;
29214;SDS011;16252;49.816;7.964;2022-11-20T04:59:43;22.42;;;12.88;;
29214;SDS011;16252;49.816;7.964;2022-11-20T05:02:08;21.27;;;12.43;;
29214;SDS011;16252;49.816;7.964;2022-11-20T05:04:34;21.10;;;12.75;;
29214;SDS011;16252;49.816;7.964;2022-11-20T05:07:00;18.83;;;11.63;;
29214;SDS011;16252;49.816;7.964;2022-11-20T05:09:26;22.25;;;12.88;;
29214;SDS011;16252;49.816;7.964;2022-11-20T05:11:51;22.25;;;12.55;;
29214;SDS011;16252;49.816;7.964;2022-11-20T05:14:16;22.42;;;12.85;;
29214;SDS011;16252;49.816;7.964;2022-11-20T05:16:41;22.45;;;12.70;;
29214;SDS011;16252;49.816;7.964;2022-11-20T05:19:07;23.70;;;13.43;;
29214;SDS011;16252;49.816;7.964;2022-11-20T05:21:32;21.13;;;12.65;;
29214;SDS011;16252;49.816;7.964;2022-11-20T05:23:57;22.67;;;12.77;;
29214;SDS011;16252;49.816;7.964;2022-11-20T05:26:23;21.00;;;12.13;;
29214;SDS011;16252;49.816;7.964;2022-11-20T05:28:48;21.25;;;12.20;;
29214;SDS011;16252;49.816;7.964;2022-11-20T05:31:15;23.27;;;12.85;;
29214;SDS011;16252;49.816;7.964;2022-11-20T05:33:45;23.90;;;13.93;;
29214;SDS011;16252;49.816;7.964;2022-11-20T05:36:12;22.25;;;12.55;;
29214;SDS011;16252;49.816;7.964;2022-11-20T05:38:39;22.00;;;12.40;;
29214;SDS011;16252;49.816;7.964;2022-11-20T05:41:06;23.52;;;12.05;;
29214;SDS011;16252;49.816;7.964;2022-11-20T05:43:39;20.98;;;12.15;;
29214;SDS011;16252;49.816;7.964;2022-11-20T05:46:06;23.45;;;12.93;;
29214;SDS011;16252;49.816;7.964;2022-11-20T05:48:32;21.27;;;11.65;;
29214;SDS011;16252;49.816;7.964;2022-11-20T05:50:58;21.13;;;12.07;;
29214;SDS011;16252;49.816;7.964;2022-11-20T05:53:25;21.05;;;12.18;;
29214;SDS011;16252;49.816;7.964;2022-11-20T05:55:59;23.17;;;12.40;;
29214;SDS011;16252;49.816;7.964;2022-11-20T05:58:26;21.60;;;11.63;;
29214;SDS011;16252;49.816;7.964;2022-11-20T06:00:52;23.65;;;12.63;;
29214;SDS011;16252;49.816;7.964;2022-11-20T06:03:17;19.50;;;12.02;;
29214;SDS011;16252;49.816;7.964;2022-11-20T06:05:43;20.70;;;12.15;;
29214;SDS011;16252;49.816;7.964;2022-11-20T06:08:08;19.60;;;11.73;;
29214;SDS011;16252;49.816;7.964;2022-11-20T06:10:33;22.02;;;12.07;;
29214;SDS011;16252;49.816;7.964;2022-11-20T06:12:58;22.83;;;12.90;;
29214;SDS011;16252;49.816;7.964;2022-11-20T06:15:24;22.48;;;12.18;;
29214;SDS011;16252;49.816;7.964;2022-11-20T06:17:53;20.70;;;12.35;;
29214;SDS011;16252;49.816;7.964;2022-11-20T06:20:19;20.43;;;11.50;;
29214;SDS011;16252;49.816;7.964;2022-11-20T06:22:45;18.60;;;11.73;;
29214;SDS011;16252;49.816;7.964;2022-11-20T06:25:10;20.85;;;12.38;;
29214;SDS011;16252;49.816;7.964;2022-11-20T06:27:35;20.70;;;12.43;;
29214;SDS011;16252;49.816;7.964;2022-11-20T06:30:01;21.50;;;12.85;;
29214;SDS011;16252;49.816;7.964;2022-11-20T06:32:26;21.35;;;13.40;;
29214;SDS011;16252;49.816;7.964;2022-11-20T06:34:51;22.20;;;12.73;;
29214;SDS011;16252;49.816;7.964;2022-11-20T06:37:16;17.27;;;10.52;;
29214;SDS011;16252;49.816;7.964;2022-11-20T06:39:42;22.90;;;11.15;;
29214;SDS011;16252;49.816;7.964;2022-11-20T06:42:07;17.38;;;10.68;;
29214;SDS011;16252;49.816;7.964;2022-11-20T06:44:32;18.35;;;10.23;;
29214;SDS011;16252;49.816;7.964;2022-11-20T06:46:57;19.92;;;10.98;;
29214;SDS011;16252;49.816;7.964;2022-11-20T06:49:23;18.98;;;11.40;;
29214;SDS011;16252;49.816;7.964;2022-11-20T06:51:48;19.80;;;11.20;;
29214;SDS011;16252;49.816;7.964;2022-11-20T06:54:13;19.77;;;11.38;;
29214;SDS011;16252;49.816;7.964;2022-11-20T06:56:39;18.33;;;10.95;;
29214;SDS011;16252;49.816;7.964;2022-11-20T06:59:05;21.30;;;12.18;;
29214;SDS011;16252;49.816;7.964;2022-11-20T07:01:30;22.13;;;12.23;;
29214;SDS011;16252;49.816;7.964;2022-11-20T07:03:56;20.67;;;12.32;;
29214;SDS011;16252;49.816;7.964;2022-11-20T07:06:21;20.10;;;12.20;;
29214;SDS011;16252;49.816;7.964;2022-11-20T07:08:46;18.65;;;11.30;;
29214;SDS011;16252;49.816;7.964;2022-11-20T07:11:12;19.98;;;12.07;;
29214;SDS011;16252;49.816;7.964;2022-11-20T07:13:37;20.88;;;12.00;;
29214;SDS011;16252;49.816;7.964;2022-11-20T07:16:04;19.88;;;11.98;;
29214;SDS011;16252;49.816;7.964;2022-11-20T07:18:31;19.00;;;11.23;;
29214;SDS011;16252;49.816;7.964;2022-11-20T07:21:04;20.73;;;12.18;;
29214;SDS011;16252;49.816;7.964;2022-11-20T07:23:31;21.65;;;12.50;;
29214;SDS011;16252;49.816;7.964;2022-11-20T07:25:57;23.55;;;12.82;;
29214;SDS011;16252;49.816;7.964;2022-11-20T07:28:22;19.92;;;11.57;;
29214;SDS011;16252;49.816;7.964;2022-11-20T07:30:51;24.08;;;13.30;;
29214;SDS011;16252;49.816;7.964;2022-11-20T07:33:16;19.85;;;12.18;;
29214;SDS011;16252;49.816;7.964;2022-11-20T07:35:42;20.17;;;11.93;;
29214;SDS011;16252;49.816;7.964;2022-11-20T07:38:07;22.02;;;12.48;;
29214;SDS011;16252;49.816;7.964;2022-11-20T07:40:33;20.02;;;11.88;;
29214;SDS011;16252;49.816;7.964;2022-11-20T07:42:58;21.25;;;12.27;;
29214;SDS011;16252;49.816;7.964;2022-11-20T07:45:23;21.30;;;11.88;;
29214;SDS011;16252;49.816;7.964;2022-11-20T07:47:49;20.65;;;11.98;;
29214;SDS011;16252;49.816;7.964;2022-11-20T07:50:15;21.02;;;12.45;;
29214;SDS011;16252;49.816;7.964;2022-11-20T07:52:41;23.55;;;13.27;;
29214;SDS011;16252;49.816;7.964;2022-11-20T07:55:07;23.50;;;13.88;;
29214;SDS011;16252;49.816;7.964;2022-11-20T07:57:33;26.13;;;15.75;;
29214;SDS011;16252;49.816;7.964;2022-11-20T07:59:59;23.27;;;13.15;;
29214;SDS011;16252;49.816;7.964;2022-11-20T08:02:24;24.08;;;13.50;;
29214;SDS011;16252;49.816;7.964;2022-11-20T08:04:49;21.75;;;12.68;;
29214;SDS011;16252;49.816;7.964;2022-11-20T08:07:15;20.33;;;11.65;;
29214;SDS011;16252;49.816;7.964;2022-11-20T08:09:40;18.17;;;11.32;;
29214;SDS011;16252;49.816;7.964;2022-11-20T08:12:06;19.65;;;12.45;;
29214;SDS011;16252;49.816;7.964;2022-11-20T08:14:50;16.65;;;10.43;;
29214;SDS011;16252;49.816;7.964;2022-11-20T08:17:16;18.27;;;11.88;;
29214;SDS011;16252;49.816;7.964;2022-11-20T08:19:41;15.38;;;9.80;;
29214;SDS011;16252;49.816;7.964;2022-11-20T08:22:06;16.05;;;9.68;;
29214;SDS011;16252;49.816;7.964;2022-11-20T08:24:32;16.30;;;9.60;;
29214;SDS011;16252;49.816;7.964;2022-11-20T08:26:57;15.27;;;9.55;;
29214;SDS011;16252;49.816;7.964;2022-11-20T08:29:24;16.63;;;9.45;;
29214;SDS011;16252;49.816;7.964;2022-11-20T08:31:49;15.18;;;9.77;;
29214;SDS011;16252;49.816;7.964;2022-11-20T08:34:14;16.52;;;10.23;;
29214;SDS011;16252;49.816;7.964;2022-11-20T08:36:42;16.60;;;9.95;;
29214;SDS011;16252;49.816;7.964;2022-11-20T08:39:10;18.48;;;11.27;;
29214;SDS011;16252;49.816;7.964;2022-11-20T08:41:36;19.85;;;10.93;;
29214;SDS011;16252;49.816;7.964;2022-11-20T08:44:02;19.75;;;11.35;;
29214;SDS011;16252;49.816;7.964;2022-11-20T08:46:32;17.95;;;10.77;;
29214;SDS011;16252;49.816;7.964;2022-11-20T08:49:01;21.30;;;12.63;;
29214;SDS011;16252;49.816;7.964;2022-11-20T08:51:26;22.05;;;12.07;;
29214;SDS011;16252;49.816;7.964;2022-11-20T08:53:52;22.13;;;12.77;;
29214;SDS011;16252;49.816;7.964;2022-11-20T08:56:17;24.60;;;13.93;;
29214;SDS011;16252;49.816;7.964;2022-11-20T08:58:42;26.13;;;14.05;;
29214;SDS011;16252;49.816;7.964;2022-11-20T09:01:08;28.23;;;15.27;;
29214;SDS011;16252;49.816;7.964;2022-11-20T09:03:33;29.63;;;17.35;;
29214;SDS011;16252;49.816;7.964;2022-11-20T09:05:59;26.23;;;14.27;;
29214;SDS011;16252;49.816;7.964;2022-11-20T09:08:26;25.42;;;14.40;;
29214;SDS011;16252;49.816;7.964;2022-11-20T09:10:52;23.48;;;13.82;;
29214;SDS011;16252;49.816;7.964;2022-11-20T09:13:19;26.42;;;15.07;;
29214;SDS011;16252;49.816;7.964;2022-11-20T09:15:45;25.27;;;15.20;;
29214;SDS011;16252;49.816;7.964;2022-11-20T09:18:11;25.38;;;14.43;;
29214;SDS011;16252;49.816;7.964;2022-11-20T09:20:36;25.60;;;15.18;;
29214;SDS011;16252;49.816;7.964;2022-11-20T09:23:01;28.35;;;15.70;;
29214;SDS011;16252;49.816;7.964;2022-11-20T09:25:27;27.38;;;15.40;;
29214;SDS011;16252;49.816;7.964;2022-11-20T09:27:56;25.95;;;14.07;;
29214;SDS011;16252;49.816;7.964;2022-11-20T09:30:22;28.10;;;14.82;;
29214;SDS011;16252;49.816;7.964;2022-11-20T09:32:47;28.42;;;16.40;;
29214;SDS011;16252;49.816;7.964;2022-11-20T09:35:12;29.30;;;15.80;;
29214;SDS011;16252;49.816;7.964;2022-11-20T09:37:39;30.38;;;15.90;;
29214;SDS011;16252;49.816;7.964;2022-11-20T09:40:05;29.67;;;16.27;;
29214;SDS011;16252;49.816;7.964;2022-11-20T09:42:41;32.28;;;18.70;;
29214;SDS011;16252;49.816;7.964;2022-11-20T09:45:50;31.52;;;16.67;;
29214;SDS011;16252;49.816;7.964;2022-11-20T09:48:28;30.38;;;16.50;;
29214;SDS011;16252;49.816;7.964;2022-11-20T09:50:58;27.80;;;15.88;;
29214;SDS011;16252;49.816;7.964;2022-11-20T09:53:49;28.63;;;15.15;;
29214;SDS011;16252;49.816;7.964;2022-11-20T09:56:20;27.15;;;15.25;;
29214;SDS011;16252;49.816;7.964;2022-11-20T09:58:50;27.88;;;15.60;;
29214;SDS011;16252;49.816;7.964;2022-11-20T10:01:17;27.95;;;14.98;;
29214;SDS011;16252;49.816;7.964;2022-11-20T10:03:55;27.13;;;15.02;;
29214;SDS011;16252;49.816;7.964;2022-11-20T10:06:28;22.90;;;13.50;;
29214;SDS011;16252;49.816;7.964;2022-11-20T10:09:20;26.58;;;13.45;;
29214;SDS011;16252;49.816;7.964;2022-11-20T10:14:59;23.15;;;12.90;;
29214;SDS011;16252;49.816;7.964;2022-11-20T10:23:35;25.70;;;12.57;;
29214;SDS011;16252;49.816;7.964;2022-11-20T10:29:13;21.83;;;12.68;;
29214;SDS011;16252;49.816;7.964;2022-11-20T10:31:50;20.73;;;12.02;;
29214;SDS011;16252;49.816;7.964;2022-11-20T10:34:31;23.13;;;12.70;;
29214;SDS011;16252;49.816;7.964;2022-11-20T10:37:17;19.92;;;12.35;;
29214;SDS011;16252;49.816;7.964;2022-11-20T10:42:22;15.98;;;9.63;;
29214;SDS011;16252;49.816;7.964;2022-11-20T10:44:58;18.73;;;10.00;;
29214;SDS011;16252;49.816;7.964;2022-11-20T10:47:34;18.38;;;11.18;;
29214;SDS011;16252;49.816;7.964;2022-11-20T10:50:04;19.13;;;11.75;;
29214;SDS011;16252;49.816;7.964;2022-11-20T10:55:53;17.73;;;11.23;;
29214;SDS011;16252;49.816;7.964;2022-11-20T10:58:30;20.27;;;11.10;;
29214;SDS011;16252;49.816;7.964;2022-11-20T11:01:15;20.25;;;11.95;;
29214;SDS011;16252;49.816;7.964;2022-11-20T11:03:42;19.17;;;11.95;;
29214;SDS011;16252;49.816;7.964;2022-11-20T11:08:49;18.92;;;11.57;;
29214;SDS011;16252;49.816;7.964;2022-11-20T11:11:23;20.20;;;11.77;;
29214;SDS011;16252;49.816;7.964;2022-11-20T11:13:51;20.70;;;11.80;;
29214;SDS011;16252;49.816;7.964;2022-11-20T11:16:21;19.15;;;10.88;;
29214;SDS011;16252;49.816;7.964;2022-11-20T11:18:48;19.30;;;11.45;;
29214;SDS011;16252;49.816;7.964;2022-11-20T11:21:19;19.73;;;12.55;;
29214;SDS011;16252;49.816;7.964;2022-11-20T11:23:48;16.95;;;10.90;;
29214;SDS011;16252;49.816;7.964;2022-11-20T11:26:24;21.23;;;12.13;;
29214;SDS011;16252;49.816;7.964;2022-11-20T11:28:57;19.45;;;12.10;;
29214;SDS011;16252;49.816;7.964;2022-11-20T11:31:28;19.83;;;11.02;;
29214;SDS011;16252;49.816;7.964;2022-11-20T11:34:05;18.75;;;11.20;;
29214;SDS011;16252;49.816;7.964;2022-11-20T11:36:30;19.52;;;12.00;;
29214;SDS011;16252;49.816;7.964;2022-11-20T11:38:58;20.55;;;12.32;;
29214;SDS011;16252;49.816;7.964;2022-11-20T11:41:24;20.60;;;12.57;;
29214;SDS011;16252;49.816;7.964;2022-11-20T11:43:56;20.48;;;11.85;;
29214;SDS011;16252;49.816;7.964;2022-11-20T11:46:45;19.92;;;12.30;;
29214;SDS011;16252;49.816;7.964;2022-11-20T11:49:18;21.95;;;12.73;;
29214;SDS011;16252;49.816;7.964;2022-11-20T11:54:32;19.67;;;11.23;;
29214;SDS011;16252;49.816;7.964;2022-11-20T11:57:04;18.92;;;11.52;;
29214;SDS011;16252;49.816;7.964;2022-11-20T11:59:41;19.77;;;11.20;;
29214;SDS011;16252;49.816;7.964;2022-11-20T12:02:36;16.17;;;10.88;;
29214;SDS011;16252;49.816;7.964;2022-11-20T12:07:52;18.50;;;10.88;;
29214;SDS011;16252;49.816;7.964;2022-11-20T12:13:17;14.07;;;8.93;;
29214;SDS011;16252;49.816;7.964;2022-11-20T12:15:49;16.40;;;10.05;;
29214;SDS011;16252;49.816;7.964;2022-11-20T12:18:16;14.23;;;8.75;;
29214;SDS011;16252;49.816;7.964;2022-11-20T12:20:45;15.30;;;9.07;;
29214;SDS011;16252;49.816;7.964;2022-11-20T12:23:28;14.57;;;9.43;;
29214;SDS011;16252;49.816;7.964;2022-11-20T12:26:31;17.63;;;10.52;;
29214;SDS011;16252;49.816;7.964;2022-11-20T12:29:15;15.48;;;9.30;;
29214;SDS011;16252;49.816;7.964;2022-11-20T12:34:42;14.68;;;9.73;;
29214;SDS011;16252;49.816;7.964;2022-11-20T12:37:29;13.82;;;9.05;;
29214;SDS011;16252;49.816;7.964;2022-11-20T12:40:35;17.20;;;10.10;;
29214;SDS011;16252;49.816;7.964;2022-11-20T12:57:14;14.73;;;8.50;;
29214;SDS011;16252;49.816;7.964;2022-11-20T13:00:00;12.52;;;8.05;;
29214;SDS011;16252;49.816;7.964;2022-11-20T13:02:44;13.70;;;8.85;;
29214;SDS011;16252;49.816;7.964;2022-11-20T13:07:50;13.05;;;8.18;;
29214;SDS011;16252;49.816;7.964;2022-11-20T13:10:31;12.10;;;8.35;;
29214;SDS011;16252;49.816;7.964;2022-11-20T13:13:04;16.25;;;8.55;;
29214;SDS011;16252;49.816;7.964;2022-11-20T13:15:45;12.65;;;8.55;;
29214;SDS011;16252;49.816;7.964;2022-11-20T13:18:18;13.47;;;7.33;;
29214;SDS011;16252;49.816;7.964;2022-11-20T13:20:44;13.07;;;8.52;;
29214;SDS011;16252;49.816;7.964;2022-11-20T13:23:11;13.73;;;8.95;;
29214;SDS011;16252;49.816;7.964;2022-11-20T13:25:48;12.93;;;7.60;;
29214;SDS011;16252;49.816;7.964;2022-11-20T13:30:50;14.95;;;10.00;;
29214;SDS011;16252;49.816;7.964;2022-11-20T13:34:00;14.70;;;9.32;;
29214;SDS011;16252;49.816;7.964;2022-11-20T13:36:23;13.48;;;8.55;;
29214;SDS011;16252;49.816;7.964;2022-11-20T13:38:51;12.13;;;7.80;;
29214;SDS011;16252;49.816;7.964;2022-11-20T13:41:32;15.80;;;8.52;;
29214;SDS011;16252;49.816;7.964;2022-11-20T13:46:41;9.63;;;5.70;;
29214;SDS011;16252;49.816;7.964;2022-11-20T13:49:10;5.95;;;3.97;;
29214;SDS011;16252;49.816;7.964;2022-11-20T13:51:43;5.47;;;3.30;;
29214;SDS011;16252;49.816;7.964;2022-11-20T13:54:32;6.00;;;2.95;;
29214;SDS011;16252;49.816;7.964;2022-11-20T14:00:07;5.38;;;2.33;;
29214;SDS011;16252;49.816;7.964;2022-11-20T14:03:30;3.25;;;2.58;;
29214;SDS011;16252;49.816;7.964;2022-11-20T14:05:55;5.28;;;2.17;;
29214;SDS011;16252;49.816;7.964;2022-11-20T14:08:30;3.00;;;2.03;;
29214;SDS011;16252;49.816;7.964;2022-11-20T14:11:04;4.38;;;2.15;;
29214;SDS011;16252;49.816;7.964;2022-11-20T14:13:55;2.78;;;2.08;;
29214;SDS011;16252;49.816;7.964;2022-11-20T14:16:21;3.33;;;1.92;;
29214;SDS011;16252;49.816;7.964;2022-11-20T14:18:47;5.03;;;2.88;;
29214;SDS011;16252;49.816;7.964;2022-11-20T14:21:20;4.13;;;3.03;;
29214;SDS011;16252;49.816;7.964;2022-11-20T14:23:46;5.38;;;3.17;;
29214;SDS011;16252;49.816;7.964;2022-11-20T14:26:13;6.43;;;3.30;;
29214;SDS011;16252;49.816;7.964;2022-11-20T14:28:47;6.88;;;3.90;;
29214;SDS011;16252;49.816;7.964;2022-11-20T14:31:17;7.28;;;3.50;;
29214;SDS011;16252;49.816;7.964;2022-11-20T14:33:48;6.95;;;3.92;;
29214;SDS011;16252;49.816;7.964;2022-11-20T14:36:17;6.70;;;4.18;;
29214;SDS011;16252;49.816;7.964;2022-11-20T14:38:44;6.10;;;3.58;;
29214;SDS011;16252;49.816;7.964;2022-11-20T14:41:16;4.35;;;2.65;;
29214;SDS011;16252;49.816;7.964;2022-11-20T14:43:47;5.32;;;2.20;;
29214;SDS011;16252;49.816;7.964;2022-11-20T14:46:18;3.30;;;2.22;;
29214;SDS011;16252;49.816;7.964;2022-11-20T14:51:12;4.47;;;2.00;;
29214;SDS011;16252;49.816;7.964;2022-11-20T14:56:59;4.72;;;2.20;;
29214;SDS011;16252;49.816;7.964;2022-11-20T14:59:28;3.95;;;1.85;;
29214;SDS011;16252;49.816;7.964;2022-11-20T15:01:58;4.32;;;1.80;;
29214;SDS011;16252;49.816;7.964;2022-11-20T15:04:24;3.00;;;1.55;;
29214;SDS011;16252;49.816;7.964;2022-11-20T15:06:50;3.40;;;2.05;;
29214;SDS011;16252;49.816;7.964;2022-11-20T15:09:17;3.13;;;1.92;;
29214;SDS011;16252;49.816;7.964;2022-11-20T15:11:51;3.28;;;2.30;;
29214;SDS011;16252;49.816;7.964;2022-11-20T15:14:19;3.92;;;2.08;;
29214;SDS011;16252;49.816;7.964;2022-11-20T15:16:45;4.82;;;3.13;;
29214;SDS011;16252;49.816;7.964;2022-11-20T15:19:23;8.07;;;4.05;;
29214;SDS011;16252;49.816;7.964;2022-11-20T15:21:50;8.52;;;3.95;;
29214;SDS011;16252;49.816;7.964;2022-11-20T15:24:15;11.02;;;5.90;;
29214;SDS011;16252;49.816;7.964;2022-11-20T15:26:41;15.57;;;7.70;;
29214;SDS011;16252;49.816;7.964;2022-11-20T15:29:11;10.90;;;6.97;;
29214;SDS011;16252;49.816;7.964;2022-11-20T15:31:38;10.20;;;5.43;;
29214;SDS011;16252;49.816;7.964;2022-11-20T15:34:11;8.30;;;4.82;;
29214;SDS011;16252;49.816;7.964;2022-11-20T15:36:38;8.15;;;4.28;;
29214;SDS011;16252;49.816;7.964;2022-11-20T15:39:04;12.02;;;5.60;;
29214;SDS011;16252;49.816;7.964;2022-11-20T15:41:32;10.73;;;6.10;;
29214;SDS011;16252;49.816;7.964;2022-11-20T15:43:57;8.50;;;4.53;;
29214;SDS011;16252;49.816;7.964;2022-11-20T15:46:23;17.85;;;8.32;;
29214;SDS011;16252;49.816;7.964;2022-11-20T15:48:56;10.77;;;5.82;;